Time;durP1;ratioP1;P1;durP2;ratioP2;P2;SDS_P1;SDS_P2;PMS_P1;PMS_P2;Temp;Humidity;BMP_temperature;BMP_pressure;BME280_temperature;BME280_humidity;BME280_pressure;Samples;Min_cycle;Max_cycle;Signal;HPM_P1;HPM_P2
2023/07/06 00:00:32;;;;;;;6.83;4.10;;;17.00;80.30;;;19.51;54.60;101274.66;4976299;28;20251;-59
2023/07/06 00:03:00;;;;;;;5.83;3.60;;;17.00;80.30;;;19.53;54.39;101272.56;4962824;28;20213;-60
2023/07/06 00:05:27;;;;;;;4.23;3.67;;;17.00;80.60;;;19.58;54.57;101270.06;4956434;28;20204;-58
2023/07/06 00:07:54;;;;;;;5.57;3.67;;;17.00;80.70;;;19.53;55.10;101278.72;4956004;28;20232;-60
2023/07/06 00:10:22;;;;;;;5.20;4.03;;;16.90;81.10;;;19.58;54.71;101280.75;4955958;28;20205;-59
2023/07/06 00:12:49;;;;;;;4.47;3.97;;;17.00;81.20;;;19.62;54.70;101292.59;4956230;28;20194;-60
2023/07/06 00:15:16;;;;;;;7.00;3.77;;;17.00;81.50;;;19.58;54.61;101288.75;4956495;28;20678;-60
2023/07/06 00:17:43;;;;;;;6.03;4.67;;;17.00;81.10;;;19.54;54.94;101290.22;4956231;28;20205;-59
2023/07/06 00:20:13;;;;;;;5.37;4.53;;;16.90;81.50;;;19.49;55.61;101298.09;4958063;28;20244;-60
2023/07/06 00:22:40;;;;;;;8.37;4.50;;;16.90;81.90;;;19.43;55.52;101294.44;4991539;28;20192;-58
2023/07/06 00:25:08;;;;;;;7.40;5.10;;;16.90;82.00;;;19.32;56.01;101291.63;4994678;28;20199;-58
2023/07/06 00:27:35;;;;;;;5.40;4.87;;;16.80;82.40;;;19.25;56.30;101299.69;4994738;28;20219;-57
2023/07/06 00:30:30;;;;;;;5.60;4.13;;;16.80;82.90;;;19.18;56.24;101306.09;4994422;28;20235;-60
2023/07/06 00:32:57;;;;;;;6.20;5.37;;;16.70;82.60;;;19.15;56.18;101306.53;4994781;28;20283;-58
2023/07/06 00:35:25;;;;;;;4.67;4.27;;;16.70;82.90;;;19.18;56.76;101312.28;4994669;28;20631;-57
2023/07/06 00:37:54;;;;;;;7.73;4.70;;;16.60;83.40;;;19.19;56.54;101311.22;4994654;28;20242;-61
2023/07/06 00:40:21;;;;;;;5.90;4.70;;;16.60;83.40;;;19.23;56.49;101307.06;4983433;28;20260;-58
2023/07/06 00:42:49;;;;;;;5.07;4.50;;;16.60;83.50;;;19.30;56.19;101315.06;4974846;28;20193;-58
2023/07/06 00:45:16;;;;;;;5.73;4.17;;;16.60;83.60;;;19.34;56.26;101316.25;4975015;28;20200;-60
2023/07/06 00:47:48;;;;;;;6.70;4.27;;;16.60;83.70;;;19.41;55.64;101314.38;4975259;28;20192;-58
2023/07/06 00:50:21;;;;;;;5.37;4.57;;;16.60;83.60;;;19.40;55.46;101316.22;4974936;28;20311;-62
2023/07/06 00:52:54;;;;;;;5.90;4.90;;;16.60;83.40;;;19.39;55.68;101311.94;4955777;28;20193;-61
2023/07/06 00:55:27;;;;;;;5.03;4.53;;;16.70;83.30;;;19.39;55.64;101313.78;4955922;28;20225;-59
2023/07/06 00:58:01;;;;;;;4.57;4.13;;;16.60;83.00;;;19.37;55.54;101315.84;4955668;28;20228;-58
2023/07/06 01:00:29;;;;;;;6.83;3.90;;;16.60;83.20;;;19.34;55.93;101321.59;4955423;28;20670;-57
2023/07/06 01:03:01;;;;;;;5.77;3.90;;;16.60;83.20;;;19.39;56.04;101325.28;4955586;28;20528;-59
2023/07/06 01:05:30;;;;;;;7.17;4.57;;;16.60;83.20;;;19.46;55.29;101322.53;4955795;28;20199;-61
2023/07/06 01:08:07;;;;;;;6.00;4.47;;;16.70;83.10;;;19.45;55.03;101315.56;4955458;28;20209;-62
2023/07/06 01:10:34;;;;;;;8.07;4.73;;;16.70;82.80;;;19.45;54.82;101324.41;4955232;28;20212;-61
2023/07/06 01:13:02;;;;;;;5.70;4.13;;;16.70;82.40;;;19.47;54.70;101324.16;4955657;28;20193;-61
2023/07/06 01:15:32;;;;;;;5.20;3.83;;;16.70;82.40;;;19.51;54.94;101322.72;4955431;28;20213;-61
2023/07/06 01:18:09;;;;;;;5.37;4.20;;;16.70;83.20;;;19.52;54.59;101322.47;4955529;28;20189;-61
2023/07/06 01:20:44;;;;;;;5.73;3.97;;;16.70;82.30;;;19.55;54.28;101326.56;4969015;28;20213;-61
2023/07/06 01:23:45;;;;;;;7.50;4.03;;;16.70;82.10;;;19.52;54.35;101322.47;4955314;28;20256;-61
2023/07/06 01:26:36;;;;;;;6.47;3.70;;;16.70;81.90;;;19.54;54.54;101327.59;4955101;28;20464;-60
2023/07/06 01:30:17;;;;;;;10.00;4.50;;;16.80;81.70;;;19.46;54.24;101335.91;4955068;28;20291;-59
2023/07/06 01:32:55;;;;;;;5.90;3.57;;;16.80;81.70;;;19.50;54.24;101342.44;4925467;28;20658;-61
2023/07/06 01:35:34;;;;;;;5.13;4.17;;;16.80;81.50;;;19.54;54.22;101336.44;4955631;28;20205;-59
2023/07/06 01:38:01;;;;;;;4.00;3.27;;;16.80;81.50;;;19.57;54.40;101337.84;4974663;28;20188;-61
2023/07/06 01:40:28;;;;;;;5.47;3.87;;;16.80;81.60;;;19.62;54.30;101337.19;4974530;28;20251;-62
2023/07/06 01:42:59;;;;;;;5.50;4.57;;;16.80;81.40;;;19.51;54.12;101338.75;4973843;28;20220;-60
2023/07/06 01:45:28;;;;;;;5.90;4.00;;;16.80;81.40;;;19.46;54.41;101346.59;4974981;28;20657;-61
2023/07/06 01:48:01;;;;;;;4.77;3.50;;;16.80;81.00;;;19.50;54.65;101347.78;4974466;28;20196;-60
2023/07/06 01:50:41;;;;;;;5.43;3.40;;;16.80;81.30;;;19.55;54.37;101350.59;4972427;28;20694;-60
2023/07/06 01:53:19;;;;;;;5.37;4.03;;;16.80;81.20;;;19.59;54.00;101346.47;4955356;28;20277;-61
2023/07/06 01:55:57;;;;;;;5.93;4.50;;;16.90;81.30;;;19.61;54.00;101348.94;4955404;28;20205;-61
2023/07/06 01:58:32;;;;;;;6.20;4.13;;;16.80;81.20;;;19.61;53.79;101347.09;4955188;28;20209;-60
2023/07/06 02:01:07;;;;;;;5.93;3.80;;;16.80;81.00;;;19.53;53.79;101345.50;4955326;28;20203;-59
2023/07/06 02:03:41;;;;;;;7.37;3.87;;;16.80;81.00;;;19.55;54.31;101350.59;4972637;28;20218;-60
2023/07/06 02:06:11;;;;;;;7.70;4.20;;;16.80;81.10;;;19.59;54.16;101352.63;4974573;28;20196;-57
2023/07/06 02:08:41;;;;;;;4.77;3.93;;;16.90;81.20;;;19.63;54.13;101357.53;4973732;28;20215;-61
2023/07/06 02:11:09;;;;;;;5.30;3.87;;;16.80;81.10;;;19.63;53.78;101353.03;4974559;28;20181;-62
2023/07/06 02:13:37;;;;;;;6.27;4.13;;;16.90;81.30;;;19.63;53.99;101347.69;4973825;28;20220;-60
2023/07/06 02:16:05;;;;;;;6.73;4.47;;;16.90;81.10;;;19.59;54.44;101363.31;4974225;28;20222;-59
2023/07/06 02:18:33;;;;;;;4.97;3.97;;;16.90;81.20;;;19.51;54.25;101344.91;4973971;28;20193;-60
2023/07/06 02:21:02;;;;;;;4.80;4.13;;;16.90;81.10;;;19.50;54.55;101363.78;4974488;28;20300;-60
2023/07/06 02:23:29;;;;;;;5.53;4.00;;;16.90;81.30;;;19.47;54.32;101358.88;4973860;28;20192;-61
2023/07/06 02:25:56;;;;;;;5.70;4.20;;;16.90;81.10;;;19.43;54.58;101358.50;4973953;28;20602;-61
2023/07/06 02:28:25;;;;;;;5.40;3.43;;;16.80;81.00;;;19.46;54.18;101354.59;4974103;28;20601;-60
2023/07/06 02:30:55;;;;;;;5.47;4.60;;;16.80;81.20;;;19.52;54.46;101356.38;4974926;28;20247;-59
2023/07/06 02:33:22;;;;;;;4.13;3.73;;;16.80;81.20;;;19.55;54.14;101358.63;4977782;28;20530;-60
2023/07/06 02:35:49;;;;;;;7.23;4.60;;;16.80;81.30;;;19.56;53.91;101355.72;4977619;28;20258;-59
2023/07/06 02:38:20;;;;;;;4.67;4.10;;;16.80;81.30;;;19.50;54.09;101361.13;4977303;28;20189;-61
2023/07/06 02:40:49;;;;;;;4.57;4.00;;;16.80;81.00;;;19.43;53.99;101355.00;4977832;28;20539;-60
2023/07/06 02:43:16;;;;;;;6.87;4.10;;;16.80;81.10;;;19.38;54.42;101354.84;4976927;28;20197;-57
2023/07/06 02:45:45;;;;;;;5.77;4.87;;;16.70;81.10;;;19.36;54.39;101356.91;4977498;28;20283;-58
2023/07/06 02:48:13;;;;;;;6.83;4.10;;;16.70;81.20;;;19.33;54.50;101357.31;4977295;28;20683;-58
2023/07/06 02:50:40;;;;;;;5.90;4.30;;;16.70;81.40;;;19.25;54.79;101357.59;4973281;28;20226;-60
2023/07/06 02:53:07;;;;;;;5.90;4.90;;;16.60;81.40;;;19.13;54.80;101362.81;4957971;28;20272;-59
2023/07/06 02:55:35;;;;;;;6.67;4.57;;;16.60;81.60;;;18.99;55.12;101358.59;4956317;28;20217;-58
2023/07/06 02:58:02;;;;;;;7.10;4.77;;;16.50;81.70;;;18.84;55.86;101364.22;4957594;28;20201;-59
2023/07/06 03:00:29;;;;;;;9.90;5.07;;;16.40;82.10;;;18.74;56.00;101369.16;4957471;28;20299;-61
2023/07/06 03:02:56;;;;;;;7.63;5.30;;;16.30;82.20;;;18.64;56.56;101368.78;4970153;28;20204;-58
2023/07/06 03:05:24;;;;;;;7.27;4.37;;;16.20;82.70;;;18.55;56.65;101370.06;4976873;28;20200;-61
2023/07/06 03:07:52;;;;;;;8.13;4.73;;;16.20;83.00;;;18.54;56.82;101378.28;4976846;28;20192;-61
2023/07/06 03:10:22;;;;;;;6.37;4.70;;;16.10;83.20;;;18.46;57.08;101376.69;4976518;28;20220;-56
2023/07/06 03:12:51;;;;;;;5.80;5.23;;;16.00;83.50;;;18.37;57.27;101380.56;4976698;28;20203;-59
2023/07/06 03:15:18;;;;;;;6.27;5.40;;;16.00;83.80;;;18.32;57.39;101384.88;4976454;28;20220;-61
2023/07/06 03:17:50;;;;;;;7.40;4.90;;;15.90;84.20;;;18.28;57.66;101381.81;4976673;28;20203;-58
2023/07/06 03:20:20;;;;;;;5.77;4.90;;;15.90;84.40;;;18.24;57.61;101377.94;4976555;28;20208;-61
2023/07/06 03:22:51;;;;;;;7.83;5.53;;;15.80;84.50;;;18.23;57.96;101381.63;4976547;28;20235;-60
2023/07/06 03:25:20;;;;;;;6.83;5.03;;;15.80;84.90;;;18.18;58.15;101390.22;4976670;28;20196;-61
2023/07/06 03:27:47;;;;;;;7.27;4.93;;;15.80;85.20;;;18.16;58.16;101380.84;4976292;28;20298;-60
2023/07/06 03:30:20;;;;;;;7.13;5.23;;;15.70;85.20;;;18.12;58.21;101392.91;4976340;28;20299;-60
2023/07/06 03:32:47;;;;;;;6.10;5.17;;;15.70;85.30;;;18.12;58.38;101391.06;4976645;28;20597;-58
2023/07/06 03:35:15;;;;;;;6.33;4.93;;;15.70;85.50;;;18.15;58.13;101403.16;4976328;28;20220;-61
2023/07/06 03:37:45;;;;;;;5.83;5.27;;;15.60;85.40;;;18.16;58.27;101396.81;4976340;28;20196;-59
2023/07/06 03:40:14;;;;;;;6.83;5.33;;;15.60;85.60;;;18.12;58.36;101395.56;4975952;28;20216;-59
2023/07/06 03:42:44;;;;;;;6.30;5.40;;;15.60;85.80;;;18.09;58.43;101396.00;4975752;28;20193;-60
2023/07/06 03:45:13;;;;;;;6.00;5.40;;;15.60;85.80;;;18.10;58.41;101397.63;4975358;28;20197;-59
2023/07/06 03:47:45;;;;;;;7.77;4.93;;;15.60;86.00;;;18.07;58.42;101401.53;4975980;28;20221;-60
2023/07/06 03:50:16;;;;;;;9.03;6.13;;;15.50;85.80;;;18.03;58.79;101396.81;4975600;28;20684;-61
2023/07/06 03:52:44;;;;;;;6.10;5.60;;;15.50;86.20;;;17.98;58.93;101401.94;4956759;28;20227;-61
2023/07/06 03:55:15;;;;;;;8.70;5.90;;;15.50;86.20;;;17.93;59.08;101399.09;4956928;28;20209;-60
2023/07/06 03:57:45;;;;;;;8.60;5.67;;;15.50;86.30;;;17.91;59.35;101403.81;4956703;28;20554;-58
2023/07/06 04:00:30;;;;;;;7.13;5.27;;;15.50;86.60;;;17.91;58.98;101401.13;4956055;28;20220;-61
2023/07/06 04:03:06;;;;;;;7.77;5.63;;;15.50;86.40;;;17.93;59.26;101399.91;4956357;28;20247;-59
2023/07/06 04:05:37;;;;;;;8.93;5.50;;;15.50;86.80;;;17.95;59.15;101399.69;4956085;28;20638;-59
2023/07/06 04:08:13;;;;;;;6.53;5.87;;;15.50;86.80;;;17.95;59.31;101394.38;4956754;28;20204;-59
2023/07/06 04:10:41;;;;;;;9.97;5.93;;;15.40;86.80;;;17.92;59.18;101400.94;4956194;28;20275;-60
2023/07/06 04:13:09;;;;;;;7.03;5.70;;;15.50;86.80;;;17.93;59.32;101407.91;4956285;28;20625;-58
2023/07/06 04:15:40;;;;;;;6.70;6.00;;;15.40;87.50;;;17.95;59.22;101405.03;4956136;28;20334;-60
2023/07/06 04:18:09;;;;;;;6.27;5.67;;;15.50;87.20;;;17.96;59.31;101401.34;4956381;28;20245;-60
2023/07/06 04:20:36;;;;;;;6.80;6.10;;;15.40;87.10;;;17.95;59.27;101405.03;4955542;28;20221;-60
2023/07/06 04:23:04;;;;;;;5.87;5.27;;;15.50;87.20;;;17.96;59.67;101409.34;4956138;28;20559;-59
2023/07/06 04:25:34;;;;;;;10.97;6.53;;;15.50;87.30;;;17.88;59.65;101412.19;4967392;28;20204;-59
2023/07/06 04:28:06;;;;;;;7.60;5.37;;;15.40;87.50;;;17.95;59.60;101413.00;4975031;28;20647;-61
2023/07/06 04:30:34;;;;;;;6.27;5.67;;;15.50;87.50;;;17.99;59.67;101411.59;4974951;28;20299;-59
2023/07/06 04:33:03;;;;;;;9.43;5.80;;;15.50;87.80;;;18.08;59.39;101418.34;4975491;28;20283;-59
2023/07/06 04:35:32;;;;;;;6.87;6.17;;;15.50;87.60;;;18.22;59.22;101412.78;4975192;28;20216;-59
2023/07/06 04:38:00;;;;;;;5.83;5.23;;;15.60;87.70;;;18.39;58.80;101421.16;4975499;28;20654;-59
2023/07/06 04:40:27;;;;;;;7.17;6.37;;;15.60;87.50;;;18.55;58.40;101423.41;4974701;28;20224;-60
2023/07/06 04:42:55;;;;;;;6.90;5.40;;;15.80;87.60;;;18.61;58.18;101425.22;4974575;28;20609;-58
2023/07/06 04:45:25;;;;;;;8.23;6.07;;;15.80;87.20;;;18.71;58.09;101416.78;4975293;28;20312;-61
2023/07/06 04:47:53;;;;;;;9.03;6.47;;;15.90;87.10;;;18.79;57.82;101420.03;4974929;28;20185;-60
2023/07/06 04:50:22;;;;;;;6.47;5.87;;;16.00;86.90;;;18.88;57.55;101423.28;4973807;28;20291;-60
2023/07/06 04:52:55;;;;;;;6.10;5.50;;;16.10;86.70;;;18.98;57.22;101423.66;4955664;28;20634;-60
2023/07/06 04:55:24;;;;;;;6.33;5.70;;;16.20;86.50;;;19.10;57.28;101426.47;4954626;28;20304;-59
2023/07/06 04:57:54;;;;;;;6.13;5.30;;;16.20;86.30;;;19.21;57.17;101428.44;4955343;28;20189;-60
2023/07/06 05:00:26;;;;;;;5.97;5.40;;;16.30;86.30;;;19.33;57.01;101432.91;4954073;28;20256;-60
2023/07/06 05:02:55;;;;;;;5.73;5.13;;;16.40;86.20;;;19.46;56.74;101426.69;4967549;28;20281;-59
2023/07/06 05:05:22;;;;;;;7.23;6.40;;;16.50;86.10;;;19.51;56.14;101426.88;4974723;28;20193;-61
2023/07/06 05:07:51;;;;;;;8.63;6.07;;;16.50;85.60;;;19.60;56.20;101433.56;4975135;28;20285;-57
2023/07/06 05:10:19;;;;;;;6.80;6.10;;;16.60;85.40;;;19.60;55.85;101428.25;4974055;28;20259;-60
2023/07/06 05:12:46;;;;;;;6.33;5.17;;;16.70;85.10;;;19.66;55.79;101432.69;4974569;28;20630;-61
2023/07/06 05:15:17;;;;;;;9.00;7.07;;;16.80;85.00;;;19.66;55.51;101432.69;4974242;28;20279;-63
2023/07/06 05:17:44;;;;;;;7.07;5.87;;;16.80;84.60;;;19.57;55.82;101436.66;4974798;28;20575;-58
2023/07/06 05:20:14;;;;;;;8.57;5.67;;;16.90;84.20;;;19.65;55.87;101438.28;4973797;28;20224;-59
2023/07/06 05:22:42;;;;;;;7.17;6.23;;;16.90;84.10;;;19.71;55.81;101438.22;4976601;28;20247;-60
2023/07/06 05:25:10;;;;;;;5.63;5.13;;;16.90;84.00;;;19.83;55.60;101444.50;4974859;28;20214;-56
2023/07/06 05:27:38;;;;;;;6.83;6.23;;;17.00;84.10;;;19.93;55.17;101444.00;4974294;28;20276;-56
2023/07/06 05:30:07;;;;;;;6.57;5.77;;;17.00;83.90;;;19.98;55.14;101438.81;4973663;28;20213;-61
2023/07/06 05:32:34;;;;;;;7.17;5.93;;;17.00;83.60;;;20.06;54.93;101441.22;4974508;28;20193;-60
2023/07/06 05:35:01;;;;;;;7.80;6.30;;;17.10;83.50;;;20.09;54.29;101438.91;4974017;28;20716;-62
2023/07/06 05:37:28;;;;;;;6.87;6.13;;;17.10;83.30;;;20.11;54.41;101442.19;4974139;28;20235;-61
2023/07/06 05:40:06;;;;;;;8.00;7.30;;;17.20;84.00;;;20.03;54.54;101439.81;4973526;28;20580;-62
2023/07/06 05:42:34;;;;;;;8.13;5.43;;;17.20;82.90;;;20.02;54.81;101448.84;4974946;28;20193;-57
2023/07/06 05:45:01;;;;;;;6.50;5.90;;;17.20;82.80;;;20.07;54.35;101446.34;4973803;28;20279;-59
2023/07/06 05:47:28;;;;;;;7.53;5.93;;;17.20;82.80;;;20.13;54.38;101450.81;4973565;28;20203;-61
2023/07/06 05:49:55;;;;;;;6.60;5.90;;;17.20;83.00;;;20.15;54.24;101454.09;4973447;28;20224;-58
2023/07/06 05:52:22;;;;;;;7.83;6.00;;;17.30;83.00;;;20.20;54.33;101461.47;4956894;28;20210;-60
2023/07/06 05:54:49;;;;;;;7.50;6.07;;;17.30;83.00;;;20.21;54.34;101463.91;4954461;28;20197;-60
2023/07/06 05:57:19;;;;;;;8.90;7.30;;;17.30;83.00;;;20.13;54.53;101456.16;4954098;28;20225;-61
2023/07/06 05:59:48;;;;;;;6.27;5.67;;;17.30;83.00;;;20.12;54.83;101451.84;4953369;28;20657;-62
2023/07/06 06:02:18;;;;;;;8.67;7.77;;;17.40;83.10;;;20.11;55.15;101460.91;4961872;28;20254;-60
2023/07/06 06:04:47;;;;;;;12.77;6.13;;;17.40;83.50;;;20.24;54.82;101460.81;4974313;28;20207;-60
2023/07/06 06:07:15;;;;;;;9.03;6.73;;;17.40;83.60;;;20.37;54.58;101467.09;4976332;28;20842;-61
2023/07/06 06:09:42;;;;;;;8.07;5.77;;;17.50;83.80;;;20.49;54.82;101465.31;4976994;28;20228;-61
2023/07/06 06:12:17;;;;;;;6.30;5.70;;;17.50;83.70;;;20.61;54.35;101463.56;4977046;28;20201;-62
2023/07/06 06:14:48;;;;;;;10.87;7.07;;;17.60;84.40;;;20.57;54.41;101467.69;4976754;28;20198;-62
2023/07/06 06:17:17;;;;;;;9.60;6.57;;;17.60;83.30;;;20.61;54.35;101471.59;4976834;28;20243;-61
2023/07/06 06:19:45;;;;;;;7.37;6.20;;;17.70;83.00;;;20.66;54.45;101471.72;4976577;28;20212;-62
2023/07/06 06:22:15;;;;;;;8.27;7.23;;;17.80;83.00;;;20.74;54.36;101476.78;4977130;28;20193;-60
2023/07/06 06:24:43;;;;;;;10.03;6.70;;;17.90;82.90;;;20.83;54.32;101478.09;4976920;28;20192;-60
2023/07/06 06:27:12;;;;;;;7.80;6.13;;;18.00;82.80;;;21.00;54.13;101472.97;4977072;28;20188;-62
2023/07/06 06:29:39;;;;;;;9.03;5.30;;;18.00;82.60;;;21.19;53.42;101472.75;4976200;28;20651;-60
2023/07/06 06:32:10;;;;;;;9.83;6.37;;;18.10;82.70;;;21.38;52.95;101479.69;4976508;28;20657;-61
2023/07/06 06:34:39;;;;;;;6.20;5.53;;;18.30;82.40;;;21.54;52.42;101480.91;4976854;28;20283;-59
2023/07/06 06:37:09;;;;;;;6.70;5.60;;;18.30;81.80;;;21.66;52.10;101488.97;4976936;28;20224;-60
2023/07/06 06:39:37;;;;;;;8.07;6.10;;;18.40;81.40;;;21.75;51.71;101493.00;4975980;28;20224;-59
2023/07/06 06:42:04;;;;;;;7.20;6.13;;;18.50;81.00;;;21.68;51.75;101494.94;4976868;28;20196;-60
2023/07/06 06:44:31;;;;;;;8.57;6.40;;;18.60;80.50;;;21.66;52.25;101497.84;4976317;28;20197;-59
2023/07/06 06:47:01;;;;;;;7.67;6.70;;;18.70;80.20;;;21.50;52.00;101496.63;4976396;28;20200;-59
2023/07/06 06:49:35;;;;;;;8.37;6.77;;;18.70;79.90;;;21.44;52.26;101497.53;4975870;28;20208;-61
2023/07/06 06:52:04;;;;;;;9.53;7.17;;;18.70;80.00;;;21.32;52.58;101498.56;4962126;28;20207;-60
2023/07/06 06:54:33;;;;;;;8.47;6.60;;;18.70;80.00;;;21.34;52.51;101508.00;4956653;28;20272;-66
2023/07/06 06:57:02;;;;;;;10.50;6.97;;;18.70;80.10;;;21.32;53.00;101503.91;4956803;28;20220;-60
2023/07/06 06:59:32;;;;;;;7.03;6.33;;;18.70;80.40;;;21.31;53.05;101508.44;4956783;28;20216;-60
2023/07/06 07:02:01;;;;;;;10.60;6.13;;;18.70;80.20;;;21.46;52.59;101503.50;4962367;28;20272;-59
2023/07/06 07:04:29;;;;;;;8.37;5.77;;;18.80;80.50;;;21.68;52.78;101513.72;4974915;28;20196;-59
2023/07/06 07:06:58;;;;;;;6.17;5.47;;;18.80;80.60;;;21.82;52.69;101509.78;4976305;28;20214;-58
2023/07/06 07:09:26;;;;;;;7.60;6.50;;;18.90;80.60;;;21.95;52.17;101509.59;4975752;28;20311;-59
2023/07/06 07:11:53;;;;;;;10.10;6.93;;;19.00;80.40;;;22.03;51.85;101517.31;4976341;28;20195;-59
2023/07/06 07:14:20;;;;;;;9.70;6.77;;;19.10;80.20;;;21.81;52.63;101529.59;4976338;28;20275;-60
2023/07/06 07:16:47;;;;;;;8.93;6.43;;;19.10;79.90;;;21.81;52.69;101527.72;4975484;28;20534;-61
2023/07/06 07:19:14;;;;;;;6.50;5.40;;;19.10;80.00;;;21.95;52.38;101531.06;4975523;28;20213;-61
2023/07/06 07:21:41;;;;;;;6.60;5.30;;;19.20;80.20;;;22.16;52.14;101527.81;4975721;28;20193;-61
2023/07/06 07:24:11;;;;;;;6.17;5.57;;;19.30;80.10;;;22.35;51.66;101533.91;4975991;28;20197;-60
2023/07/06 07:26:38;;;;;;;7.43;5.50;;;19.40;80.20;;;22.56;51.27;101530.69;4975896;28;20286;-61
2023/07/06 07:29:06;;;;;;;9.80;6.13;;;19.50;79.70;;;22.67;50.48;101524.50;4975356;28;20220;-61
2023/07/06 07:31:33;;;;;;;7.17;5.60;;;19.60;78.70;;;22.83;50.43;101523.78;4975890;28;20225;-58
2023/07/06 07:34:00;;;;;;;6.00;5.40;;;19.70;78.70;;;23.01;50.09;101525.50;4975857;28;20291;-61
2023/07/06 07:36:27;;;;;;;8.10;5.30;;;19.90;78.60;;;22.99;48.28;101523.03;4975258;28;20208;-59
2023/07/06 07:38:56;;;;;;;8.37;6.07;;;20.00;75.50;;;23.04;48.74;101522.31;4975412;28;20745;-59
2023/07/06 07:41:25;;;;;;;7.63;5.93;;;20.10;75.60;;;23.25;48.84;101527.09;4975300;28;20209;-59
2023/07/06 07:43:52;;;;;;;5.00;4.37;;;20.30;75.60;;;23.48;48.38;101530.53;4975220;28;20327;-58
2023/07/06 07:46:20;;;;;;;6.60;5.13;;;20.40;75.70;;;23.68;47.46;101522.00;4975308;28;20196;-60
2023/07/06 07:48:49;;;;;;;11.30;4.97;;;20.50;74.70;;;23.83;46.98;101535.72;4975182;28;20205;-59
2023/07/06 07:51:19;;;;;;;4.30;3.63;;;20.60;74.50;;;23.94;47.07;101537.53;4974768;28;20575;-59
2023/07/06 07:53:47;;;;;;;4.97;4.47;;;20.80;73.80;;;24.06;46.13;101532.06;4975444;28;20204;-58
2023/07/06 07:56:15;;;;;;;6.43;4.57;;;20.90;73.10;;;24.15;46.30;101536.84;4975521;28;20216;-57
2023/07/06 07:58:47;;;;;;;5.13;4.00;;;20.90;72.50;;;24.21;44.90;101541.25;4965867;28;20264;-59
2023/07/06 08:01:20;;;;;;;6.37;4.53;;;21.00;71.10;;;24.29;45.50;101533.84;4955893;28;20223;-60
2023/07/06 08:03:48;;;;;;;10.77;4.93;;;21.10;71.10;;;24.40;45.40;101532.91;4955753;28;20193;-56
2023/07/06 08:06:18;;;;;;;6.17;3.80;;;21.20;71.20;;;24.47;44.97;101538.94;4956069;28;20201;-59
2023/07/06 08:08:47;;;;;;;7.00;3.50;;;21.30;70.40;;;24.55;44.20;101544.75;4955616;28;20592;-60
2023/07/06 08:11:20;;;;;;;4.90;3.90;;;21.30;70.10;;;24.67;43.78;101547.34;4972695;28;20208;-60
2023/07/06 08:13:53;;;;;;;6.37;3.37;;;21.40;69.50;;;24.71;43.42;101543.06;4974900;28;20200;-61
2023/07/06 08:16:21;;;;;;;5.70;3.53;;;21.50;68.10;;;24.75;43.59;101541.50;4974542;28;20204;-59
2023/07/06 08:18:50;;;;;;;7.17;4.00;;;21.60;68.00;;;24.98;43.29;101546.72;4974510;28;20267;-60
2023/07/06 08:21:34;;;;;;;8.73;4.43;;;21.70;68.40;;;25.62;42.10;101546.97;4975499;28;20212;-60
2023/07/06 08:24:21;;;;;;;5.80;3.40;;;21.90;67.20;;;26.49;40.50;101545.56;4974655;28;20177;-60
2023/07/06 08:26:49;;;;;;;2.77;2.43;;;22.20;67.50;;;26.86;40.24;101540.97;4974991;28;20199;-62
2023/07/06 08:29:17;;;;;;;8.50;6.57;;;22.60;66.90;;;27.43;39.49;101540.16;4973946;28;20216;-61
2023/07/06 08:31:45;;;;;;;4.87;3.30;;;22.90;65.70;;;28.46;37.68;101546.16;4975129;28;20322;-59
2023/07/06 08:34:14;;;;;;;5.37;3.50;;;23.30;64.60;;;29.21;34.01;101546.03;4974797;28;20296;-61
2023/07/06 08:36:41;;;;;;;6.33;3.20;;;23.80;59.60;;;29.60;33.03;101542.56;4974402;28;20264;-57
2023/07/06 08:39:08;;;;;;;4.10;3.07;;;24.30;58.00;;;29.71;32.93;101549.53;4974388;28;20216;-62
2023/07/06 08:41:42;;;;;;;5.37;3.07;;;24.70;56.40;;;30.10;32.99;101558.47;4974636;28;20219;-61
2023/07/06 08:44:12;;;;;;;4.33;3.10;;;25.20;56.20;;;30.68;31.71;101560.13;4973600;28;20308;-60
2023/07/06 08:46:48;;;;;;;5.37;3.17;;;25.60;55.20;;;31.41;31.30;101557.09;4974782;28;20216;-56
2023/07/06 08:49:27;;;;;;;4.57;3.20;;;26.00;53.90;;;31.48;31.46;101557.56;4974272;28;20311;-62
2023/07/06 08:52:02;;;;;;;5.80;3.20;;;26.50;53.50;;;31.06;31.59;101560.28;4960168;28;20215;-57
2023/07/06 08:54:30;;;;;;;5.50;2.57;;;26.60;52.80;;;30.49;32.41;101558.44;4960733;28;20208;-59
2023/07/06 08:56:59;;;;;;;3.70;3.17;;;26.60;52.30;;;29.83;32.44;101558.16;4974216;28;20595;-58
2023/07/06 08:59:37;;;;;;;4.13;3.73;;;26.40;52.20;;;29.07;33.81;101558.53;4974264;28;20227;-60
2023/07/06 09:02:18;;;;;;;6.63;3.10;;;26.00;52.00;;;28.37;34.52;101564.88;4973566;28;20263;-56
2023/07/06 09:04:48;;;;;;;3.33;2.60;;;25.60;52.90;;;27.88;35.33;101561.06;4974487;28;20603;-60
2023/07/06 09:07:18;;;;;;;4.63;3.20;;;25.20;53.60;;;27.28;35.02;101564.41;4974197;28;20199;-61
2023/07/06 09:09:48;;;;;;;3.67;2.93;;;24.70;52.40;;;26.82;36.19;101576.88;4974012;28;20676;-60
2023/07/06 09:12:24;;;;;;;4.97;2.87;;;24.40;54.10;;;26.44;37.05;101575.25;4973250;28;20209;-60
2023/07/06 09:14:53;;;;;;;3.63;2.90;;;24.00;55.20;;;26.15;37.40;101572.03;4974554;28;20195;-60
2023/07/06 09:17:23;;;;;;;4.13;3.37;;;23.70;56.20;;;25.90;38.21;101579.06;4974718;28;20212;-56
2023/07/06 09:19:53;;;;;;;4.60;3.10;;;23.40;57.10;;;25.68;39.10;101581.00;4974917;28;20212;-61
2023/07/06 09:22:23;;;;;;;5.00;3.13;;;23.10;57.90;;;25.47;39.51;101575.38;4973619;28;20613;-60
2023/07/06 09:24:51;;;;;;;3.50;2.93;;;22.90;58.20;;;25.34;39.66;101583.03;4970523;28;20669;-59
2023/07/06 09:27:26;;;;;;;4.80;3.10;;;22.70;58.90;;;25.22;39.42;101576.94;4962909;28;20189;-61
2023/07/06 09:30:00;;;;;;;4.73;2.80;;;22.50;59.50;;;25.15;39.88;101587.09;4966482;28;20228;-60
2023/07/06 09:32:34;;;;;;;8.13;3.23;;;22.40;60.20;;;25.07;40.17;101585.66;4972935;28;20214;-59
2023/07/06 09:35:06;;;;;;;4.17;2.67;;;22.30;60.80;;;24.99;40.79;101583.38;4985772;28;20192;-60
2023/07/06 09:37:33;;;;;;;4.07;3.33;;;22.20;61.30;;;24.91;41.11;101585.69;4973575;28;20291;-59
2023/07/06 09:40:03;;;;;;;4.70;2.90;;;22.10;61.90;;;24.84;41.69;101581.28;4972052;28;20259;-59
2023/07/06 09:42:33;;;;;;;7.17;3.60;;;22.10;62.40;;;24.66;41.99;101589.59;4977096;28;20247;-64
2023/07/06 09:45:02;;;;;;;5.80;3.77;;;22.00;62.40;;;24.54;42.43;101598.81;4976613;28;20568;-59
2023/07/06 09:47:33;;;;;;;11.30;3.57;;;22.00;63.10;;;24.47;43.08;101617.03;4976756;28;20215;-60
2023/07/06 09:50:14;;;;;;;5.77;3.57;;;21.90;65.80;;;24.23;44.44;101610.97;4972135;28;20311;-59
2023/07/06 09:52:42;;;;;;;5.60;3.30;;;21.80;67.70;;;24.06;45.28;101605.56;4977011;28;20284;-59
2023/07/06 09:55:19;;;;;;;5.13;4.13;;;21.60;67.40;;;23.97;45.52;101614.25;4976763;28;20287;-59
2023/07/06 09:57:50;;;;;;;6.30;5.60;;;21.50;68.90;;;23.98;45.52;101616.72;4969474;28;20219;-60
2023/07/06 10:00:22;;;;;;;5.63;3.77;;;21.30;68.90;;;23.89;46.47;101618.13;4974408;28;20547;-60
2023/07/06 10:03:08;;;;;;;5.13;4.60;;;21.30;70.30;;;23.93;47.04;101622.00;4976412;28;20204;-58
2023/07/06 10:05:44;;;;;;;5.73;3.87;;;21.30;71.30;;;24.17;47.32;101614.66;4974952;28;20203;-58
2023/07/06 10:08:18;;;;;;;5.90;3.80;;;21.30;72.50;;;24.41;46.80;101615.31;4976342;28;20206;-58
2023/07/06 10:11:02;;;;;;;5.30;3.90;;;21.30;73.00;;;24.70;46.48;101616.84;4962693;28;20221;-59
2023/07/06 10:13:40;;;;;;;4.53;3.50;;;21.40;73.30;;;25.86;45.22;101607.66;4978626;28;20671;-60
2023/07/06 10:16:24;;;;;;;5.20;3.60;;;21.70;73.10;;;27.63;41.16;101615.13;4976401;28;20207;-59
2023/07/06 10:19:03;;;;;;;7.27;3.90;;;22.20;71.50;;;29.52;38.09;101616.41;4960064;28;20292;-59
2023/07/06 10:21:40;;;;;;;3.80;2.90;;;22.90;70.60;;;31.30;36.02;101610.06;4974421;28;20622;-61
2023/07/06 10:24:24;;;;;;;5.23;3.20;;;23.80;68.60;;;33.08;32.48;101605.06;4976774;28;20189;-59
2023/07/06 10:26:59;;;;;;;5.43;3.23;;;24.80;65.10;;;33.49;31.00;101612.41;4973784;28;20593;-61